Archival Weather

Kayes/Dag-Dag

Kayes/Dag-Dag, Mali (GAKD)

Report from: Thursday, September 21, 2023 7:00 AM UTC
Current time: Friday, February 23, 2024 9:14 PM UTC

Current weather – Weather history – Daily summaries
Weather forecast

Temperature23.0°C (73.4°F)
Dew point22.0°C (71.6°F)
Winds 6 kts (3.1 m/s, 6.9 mph) South-Southeast (160°)
Visibility6.2 mi. (10 km)
Clouds Scattered clouds 2,000 ft. (610 m)
Altimeter30.00 in.Hg (1016 mB)
Relative humidity94 %
Density altitude1,193 ft. (364 m)
Flight conditions Visual Meteorological Conditions
Raw dataGAKD 210700Z 16006KT 9999 SCT020 23/22 Q1016 RETSRA
An error has occurred. This application may no longer respond until reloaded. Reload 🗙